MMRX/REX METAR and TAF weather

Enter ICAO airport designator
Station Type Date Time Source
MMRX METAR 2020/01/22 20:46 UTC NOAA

MMRX 222046Z 18010KT 8SM SCT035 BKN130 BKN280 24/13 A2987 RMK SLP123 57044 998 8/532 HZY


Station Type Date Time Source
MMRX Decoded METAR 2020/01/22 20:46 UTC NOAA

Reynosa International Airport , Mexico (MMRX) 26-01N 098-14W
Jan 22, 2020 - 03:46 PM EST / 2020.01.22 2046 UTC
Wind: from the S (180 degrees) at 12 MPH (10 KT):0
Visibility: 8 mile(s):0
Sky conditions: mostly cloudy
Temperature: 75 F (24 C)
Dew Point: 55 F (13 C)
Relative Humidity: 50%
Pressure (altimeter): 29.87 in. Hg (1011 hPa)
Pressure tendency: 0.13 inches (4.4 hPa) lower than three hours ago
ob: MMRX 222046Z 18010KT 8SM SCT035 BKN130 BKN280 24/13 A2987 RMK SLP123 57044 998 8/532 HZY
cycle: 21

Station Type Date Time Source
MMRX TAF 2020/01/22 18:17 UTC NOAA

TAF MMRX 221710Z 2218/2318 14015KT P6SM BKN040
TEMPO 2218/2221 5SM RA OVC030
FM222200 14012KT P6SM BKN080
FM230600 00000KT P6SM BKN015
FM231200 00000KT 2SM BR DZ OVC005
FM231600 02010KT 4SM HZ BKN015 OVC070

Example: see airport list